createdAt,value
2023-03-02T00:00:02.764Z,24.90
2023-03-02T00:01:02.697Z,23.70
2023-03-02T00:02:02.698Z,25.30
2023-03-02T00:03:02.786Z,25.70
2023-03-02T00:04:02.696Z,23.80
2023-03-02T00:05:02.961Z,22.20
2023-03-02T00:06:02.649Z,23.60
2023-03-02T00:07:02.664Z,24.90
2023-03-02T00:08:02.715Z,22.90
2023-03-02T00:09:02.752Z,23.60
2023-03-02T00:10:02.656Z,23.90
2023-03-02T00:11:02.648Z,23.70
2023-03-02T00:12:02.579Z,24.70
2023-03-02T00:13:02.679Z,22.60
2023-03-02T00:14:02.584Z,23.60
2023-03-02T00:15:02.554Z,23.90
2023-03-02T00:16:02.755Z,23.70
2023-03-02T00:17:02.695Z,24.50
2023-03-02T00:18:02.526Z,22.50
2023-03-02T00:19:02.522Z,25.20
2023-03-02T00:20:02.529Z,24.20
2023-03-02T00:21:02.522Z,23.20
2023-03-02T00:22:02.505Z,24.50
2023-03-02T00:23:02.541Z,22.40
2023-03-02T00:24:02.457Z,22.30
2023-03-02T00:25:02.471Z,24.10
2023-03-02T00:26:02.426Z,24.40
2023-03-02T00:27:02.483Z,25.20
2023-03-02T00:28:02.406Z,24.50
2023-03-02T00:29:02.386Z,26.70
2023-03-02T00:30:02.416Z,24.10
2023-03-02T00:31:02.454Z,24.10
2023-03-02T00:32:02.444Z,24.60
2023-03-02T00:33:02.366Z,26.30
2023-03-02T00:34:02.388Z,24.50
2023-03-02T00:35:02.394Z,23.50
2023-03-02T00:36:02.414Z,23.20
2023-03-02T00:37:02.344Z,22.90
2023-03-02T00:38:02.302Z,26.30
2023-03-02T00:39:02.349Z,23.00
2023-03-02T00:40:02.260Z,24.90
2023-03-02T00:41:02.262Z,23.80
2023-03-02T00:42:02.256Z,23.60
2023-03-02T00:43:02.267Z,25.10
2023-03-02T00:44:02.275Z,25.10
2023-03-02T00:45:02.295Z,26.40
2023-03-02T00:46:02.264Z,24.50
2023-03-02T00:47:02.356Z,23.20
2023-03-02T00:48:02.175Z,23.60
2023-03-02T00:49:02.189Z,22.80
2023-03-02T00:50:02.213Z,25.50
2023-03-02T00:51:02.185Z,23.80
2023-03-02T00:52:02.124Z,23.70
2023-03-02T00:53:02.143Z,23.30
2023-03-02T00:54:02.104Z,23.70
2023-03-02T00:55:02.155Z,24.90
2023-03-02T00:56:02.133Z,24.00
2023-03-02T00:57:02.082Z,22.80
2023-03-02T00:58:02.057Z,25.40
2023-03-02T00:59:02.083Z,21.30
2023-03-02T01:00:02.048Z,23.00
2023-03-02T01:01:02.056Z,24.20
2023-03-02T01:02:02.084Z,22.90
2023-03-02T01:03:02.151Z,22.70
2023-03-02T01:04:01.999Z,23.20
2023-03-02T01:05:01.994Z,24.00
2023-03-02T01:06:01.989Z,21.70
2023-03-02T01:07:01.994Z,22.70
2023-03-02T01:08:01.949Z,21.90
2023-03-02T01:09:01.960Z,23.20
2023-03-02T01:10:02.020Z,22.30
2023-03-02T01:11:01.939Z,23.40
2023-03-02T01:12:01.931Z,23.40
2023-03-02T01:13:01.942Z,23.20
2023-03-02T01:14:01.901Z,22.70
2023-03-02T01:15:01.938Z,22.80
2023-03-02T01:16:02.385Z,22.70
2023-03-02T01:17:01.904Z,24.80
2023-03-02T01:18:01.877Z,23.40
2023-03-02T01:19:01.828Z,23.00
2023-03-02T01:20:01.825Z,23.70
2023-03-02T01:21:01.879Z,23.90
2023-03-02T01:22:01.795Z,22.00
2023-03-02T01:23:01.799Z,22.00
2023-03-02T01:24:01.800Z,24.30
2023-03-02T01:25:01.816Z,23.60
2023-03-02T01:26:01.814Z,23.20
2023-03-02T01:27:01.769Z,22.90
2023-03-02T01:28:01.748Z,23.50
2023-03-02T01:29:01.755Z,23.80
2023-03-02T01:30:01.707Z,24.60
2023-03-02T01:31:01.780Z,21.90
2023-03-02T01:32:01.882Z,24.30
2023-03-02T01:33:01.684Z,24.70
2023-03-02T01:34:01.675Z,23.00
2023-03-02T01:35:01.681Z,21.50
2023-03-02T01:36:01.715Z,21.80
2023-03-02T01:37:01.753Z,21.90
2023-03-02T01:38:01.630Z,23.50
2023-03-02T01:39:01.639Z,23.10
2023-03-02T01:40:01.616Z,21.50
2023-03-02T01:41:01.618Z,24.10
2023-03-02T01:42:01.615Z,23.30
2023-03-02T01:43:01.763Z,21.40
2023-03-02T01:44:01.572Z,20.00
2023-03-02T01:45:01.541Z,20.40
2023-03-02T01:46:01.644Z,22.90
2023-03-02T01:47:01.549Z,21.70
2023-03-02T01:48:01.509Z,23.60
2023-03-02T01:49:01.500Z,20.70
2023-03-02T01:50:01.606Z,21.60
2023-03-02T01:51:02.304Z,21.40
2023-03-02T01:52:01.490Z,20.20
2023-03-02T01:53:01.449Z,22.30
2023-03-02T01:54:01.460Z,23.10
2023-03-02T01:55:01.440Z,20.70
2023-03-02T01:56:01.451Z,22.50
2023-03-02T01:57:01.482Z,24.40
2023-03-02T01:58:01.556Z,20.00
2023-03-02T01:59:01.397Z,22.10
2023-03-02T02:00:01.375Z,21.60
2023-03-02T02:01:01.430Z,21.70
2023-03-02T02:02:01.542Z,21.00
2023-03-02T02:03:01.365Z,22.80
2023-03-02T02:04:01.441Z,22.40
2023-03-02T02:05:01.328Z,21.20
2023-03-02T02:06:01.306Z,22.20
2023-03-02T02:07:01.297Z,22.50
2023-03-02T02:08:01.326Z,21.60
2023-03-02T02:09:01.298Z,22.70
2023-03-02T02:10:01.257Z,22.70
2023-03-02T02:11:01.245Z,21.50
2023-03-02T02:12:01.232Z,23.30
2023-03-02T02:13:01.363Z,21.30
2023-03-02T02:14:01.250Z,21.20
2023-03-02T02:15:01.287Z,20.10
2023-03-02T02:16:01.188Z,19.80
2023-03-02T02:17:01.362Z,21.80
2023-03-02T02:18:01.166Z,21.80
2023-03-02T02:19:01.202Z,21.60
2023-03-02T02:20:01.175Z,21.80
2023-03-02T02:21:01.140Z,22.10
2023-03-02T02:22:01.173Z,20.70
2023-03-02T02:23:01.138Z,21.30
2023-03-02T02:24:09.815Z,20.90
2023-03-02T02:25:01.112Z,22.60
2023-03-02T02:26:01.097Z,22.40
2023-03-02T02:27:01.107Z,20.50
2023-03-02T02:28:01.125Z,21.10
2023-03-02T02:29:01.074Z,21.30
2023-03-02T02:30:01.029Z,20.20
2023-03-02T02:31:01.053Z,22.30
2023-03-02T02:32:01.163Z,20.80
2023-03-02T02:33:01.038Z,21.20
2023-03-02T02:34:01.067Z,20.10
2023-03-02T02:35:00.981Z,22.80
2023-03-02T02:36:01.514Z,20.90
2023-03-02T02:37:00.979Z,22.30
2023-03-02T02:38:00.974Z,22.00
2023-03-02T02:39:00.973Z,21.70
2023-03-02T02:40:00.942Z,21.80
2023-03-02T02:41:00.916Z,20.90
2023-03-02T02:42:00.903Z,23.00
2023-03-02T02:43:00.939Z,21.10
2023-03-02T02:44:00.932Z,20.30
2023-03-02T02:45:00.933Z,21.70
2023-03-02T02:46:00.918Z,22.30
2023-03-02T02:47:00.876Z,21.80
2023-03-02T02:48:00.858Z,23.00
2023-03-02T02:49:00.844Z,23.00
2023-03-02T02:50:00.873Z,22.20
2023-03-02T02:51:00.915Z,22.20
2023-03-02T02:52:00.789Z,21.30
2023-03-02T02:53:00.782Z,21.40
2023-03-02T02:54:00.814Z,22.60
2023-03-02T02:55:00.809Z,21.70
2023-03-02T02:56:00.741Z,21.90
2023-03-02T02:57:00.734Z,20.90
2023-03-02T02:58:00.742Z,22.20
2023-03-02T02:59:00.725Z,20.60
2023-03-02T03:00:00.751Z,21.70
2023-03-02T03:01:00.789Z,20.50
2023-03-02T03:02:00.677Z,21.90
2023-03-02T03:03:00.709Z,22.00
2023-03-02T03:04:00.678Z,21.80
2023-03-02T03:05:00.683Z,20.90
2023-03-02T03:06:00.670Z,20.90
2023-03-02T03:07:00.644Z,21.20
2023-03-02T03:08:00.614Z,20.60
2023-03-02T03:09:00.599Z,21.50
2023-03-02T03:10:00.655Z,20.50
2023-03-02T03:11:00.631Z,20.50
2023-03-02T03:12:00.595Z,20.90
2023-03-02T03:13:00.575Z,22.70
2023-03-02T03:14:00.542Z,21.20
2023-03-02T03:15:00.533Z,19.80
2023-03-02T03:16:00.550Z,22.50
2023-03-02T03:17:00.645Z,22.50
2023-03-02T03:18:00.520Z,25.00
2023-03-02T03:19:00.503Z,19.90
2023-03-02T03:20:00.474Z,22.40
2023-03-02T03:21:00.464Z,20.80
2023-03-02T03:22:00.466Z,21.80
2023-03-02T03:23:00.492Z,20.20
2023-03-02T03:24:00.479Z,21.10
2023-03-02T03:25:00.603Z,20.80
2023-03-02T03:26:00.405Z,21.50
2023-03-02T03:27:00.398Z,21.70
2023-03-02T03:28:00.404Z,20.90
2023-03-02T03:29:00.399Z,22.80
2023-03-02T03:30:00.418Z,21.30
2023-03-02T03:31:00.475Z,21.00
2023-03-02T03:32:00.374Z,21.10
2023-03-02T03:33:00.326Z,21.00
2023-03-02T03:34:00.331Z,20.80
2023-03-02T03:35:00.350Z,20.70
2023-03-02T03:36:00.364Z,21.10
2023-03-02T03:37:00.347Z,18.60
2023-03-02T03:38:00.298Z,21.10
2023-03-02T03:39:00.272Z,21.40
2023-03-02T03:40:00.268Z,21.80
2023-03-02T03:41:00.251Z,21.40
2023-03-02T03:42:00.221Z,21.90
2023-03-02T03:43:00.235Z,21.30
2023-03-02T03:44:00.228Z,20.70
2023-03-02T03:45:00.243Z,21.80
2023-03-02T03:46:00.259Z,21.50
2023-03-02T03:47:00.222Z,20.70
2023-03-02T03:48:00.359Z,21.40
2023-03-02T03:49:00.159Z,22.50
2023-03-02T03:50:00.133Z,20.00
2023-03-02T03:51:00.151Z,19.90
2023-03-02T03:52:00.289Z,22.00
2023-03-02T03:53:01.709Z,23.40
2023-03-02T03:54:00.147Z,19.10
2023-03-02T03:55:00.096Z,22.30
2023-03-02T03:56:00.105Z,20.70
2023-03-02T03:57:00.096Z,21.10
2023-03-02T03:58:00.147Z,22.40
2023-03-02T03:59:00.041Z,20.50
2023-03-02T04:00:00.026Z,18.90
2023-03-02T04:01:00.014Z,19.40
2023-03-02T04:02:00.151Z,20.00
2023-03-02T04:03:00.076Z,20.30
2023-03-02T04:04:00.051Z,20.40
2023-03-02T04:04:59.964Z,19.90
2023-03-02T04:05:59.952Z,21.10
2023-03-02T04:06:59.967Z,20.10
2023-03-02T04:07:59.971Z,19.50
2023-03-02T04:08:59.949Z,21.30
2023-03-02T04:09:59.948Z,20.80
2023-03-02T04:10:59.898Z,19.20
2023-03-02T04:11:59.890Z,19.50
2023-03-02T04:12:59.879Z,20.90
2023-03-02T04:13:59.918Z,20.40
2023-03-02T04:14:59.892Z,20.20
2023-03-02T04:15:59.911Z,20.80
2023-03-02T04:16:59.842Z,20.70
2023-03-02T04:17:59.822Z,20.00
2023-03-02T04:18:59.856Z,20.00
2023-03-02T04:19:59.861Z,20.90
2023-03-02T04:20:59.824Z,20.20
2023-03-02T04:21:59.817Z,19.40
2023-03-02T04:22:59.844Z,20.90
2023-03-02T04:23:59.784Z,19.10
2023-03-02T04:24:59.774Z,20.20
2023-03-02T04:25:59.762Z,18.80
2023-03-02T04:26:59.738Z,19.50
2023-03-02T04:27:59.756Z,22.80
2023-03-02T04:28:59.703Z,20.60
2023-03-02T04:29:59.690Z,20.70
2023-03-02T04:30:59.775Z,20.90
2023-03-02T04:31:59.796Z,18.70
2023-03-02T04:32:59.678Z,21.80
2023-03-02T04:33:59.653Z,19.70
2023-03-02T04:34:59.666Z,20.20
2023-03-02T04:35:59.697Z,19.90
2023-03-02T04:36:59.624Z,18.60
2023-03-02T04:37:59.651Z,17.50
2023-03-02T04:38:59.618Z,18.70
2023-03-02T04:39:59.610Z,20.60
2023-03-02T04:40:59.576Z,19.50
2023-03-02T04:41:59.585Z,20.20
2023-03-02T04:42:59.593Z,19.70
2023-03-02T04:43:59.594Z,18.10
2023-03-02T04:44:59.542Z,19.30
2023-03-02T04:45:59.656Z,20.20
2023-03-02T04:46:59.646Z,19.70
2023-03-02T04:47:59.517Z,18.40
2023-03-02T04:48:59.503Z,19.50
2023-03-02T04:49:59.556Z,20.00
2023-03-02T04:50:59.473Z,19.90
2023-03-02T04:51:59.461Z,21.70
2023-03-02T04:52:59.454Z,22.40
2023-03-02T04:53:59.452Z,19.70
2023-03-02T04:54:59.482Z,18.70
2023-03-02T04:55:59.453Z,19.70
2023-03-02T04:56:59.451Z,19.00
2023-03-02T04:57:59.395Z,20.70
2023-03-02T04:58:59.415Z,19.80
2023-03-02T04:59:59.376Z,21.70
2023-03-02T05:00:59.400Z,21.40
2023-03-02T05:01:59.428Z,19.20
2023-03-02T05:02:59.356Z,21.70
2023-03-02T05:04:01.251Z,20.80
2023-03-02T05:04:59.426Z,21.00
2023-03-02T05:05:59.364Z,20.50
2023-03-02T05:06:59.302Z,19.50
2023-03-02T05:07:59.289Z,21.70
2023-03-02T05:08:59.268Z,20.70
2023-03-02T05:09:59.267Z,20.70
2023-03-02T05:10:59.288Z,20.30
2023-03-02T05:11:59.255Z,19.00
2023-03-02T05:12:59.290Z,21.20
2023-03-02T05:13:59.218Z,21.10
2023-03-02T05:14:59.200Z,21.80
2023-03-02T05:15:59.408Z,24.20
2023-03-02T05:16:59.191Z,21.00
2023-03-02T05:17:59.189Z,20.70
2023-03-02T05:18:59.160Z,20.50
2023-03-02T05:19:59.151Z,20.80
2023-03-02T05:20:59.147Z,21.60
2023-03-02T05:21:59.147Z,22.60
2023-03-02T05:22:59.119Z,21.70
2023-03-02T05:23:59.166Z,20.00
2023-03-02T05:24:59.128Z,20.50
2023-03-02T05:25:59.152Z,21.00
2023-03-02T05:26:59.114Z,19.30
2023-03-02T05:27:59.073Z,20.20
2023-03-02T05:28:59.072Z,19.30
2023-03-02T05:29:59.062Z,22.00
2023-03-02T05:30:59.027Z,19.30
2023-03-02T05:31:59.074Z,20.20
2023-03-02T05:32:59.120Z,20.20
2023-03-02T05:33:59.003Z,19.40
2023-03-02T05:34:59.027Z,22.20
2023-03-02T05:35:59.083Z,22.30
2023-03-02T05:36:58.959Z,20.80
2023-03-02T05:37:58.969Z,23.40
2023-03-02T05:38:58.945Z,20.90
2023-03-02T05:39:59.867Z,21.00
2023-03-02T05:40:58.938Z,20.80
2023-03-02T05:41:58.941Z,20.40
2023-03-02T05:42:58.928Z,20.10
2023-03-02T05:43:58.896Z,20.60
2023-03-02T05:44:58.908Z,20.70
2023-03-02T05:45:58.901Z,21.30
2023-03-02T05:46:58.918Z,21.40
2023-03-02T05:47:58.834Z,19.60
2023-03-02T05:48:58.876Z,21.40
2023-03-02T05:49:58.839Z,22.10
2023-03-02T05:50:58.803Z,21.40
2023-03-02T05:51:58.806Z,20.60
2023-03-02T05:52:58.820Z,21.90
2023-03-02T05:53:58.767Z,20.60
2023-03-02T05:54:59.545Z,20.00
2023-03-02T05:55:58.786Z,23.60
2023-03-02T05:56:58.772Z,19.60
2023-03-02T05:57:58.743Z,22.00
2023-03-02T05:58:58.734Z,20.40
2023-03-02T05:59:58.695Z,20.80
2023-03-02T06:00:58.690Z,21.80
2023-03-02T06:01:58.948Z,24.90
2023-03-02T06:02:58.822Z,23.20
2023-03-02T06:03:58.670Z,21.00
2023-03-02T06:04:58.642Z,20.10
2023-03-02T06:05:58.649Z,21.20
2023-03-02T06:06:58.621Z,22.40
2023-03-02T06:07:58.630Z,19.90
2023-03-02T06:08:58.612Z,21.70
2023-03-02T06:09:58.602Z,21.90
2023-03-02T06:10:58.616Z,21.80
2023-03-02T06:11:58.649Z,20.50
2023-03-02T06:12:58.590Z,22.20
2023-03-02T06:13:58.545Z,21.50
2023-03-02T06:14:58.559Z,21.60
2023-03-02T06:15:58.549Z,20.60
2023-03-02T06:16:58.639Z,21.60
2023-03-02T06:17:58.505Z,22.20
2023-03-02T06:18:58.504Z,22.60
2023-03-02T06:19:58.515Z,20.40
2023-03-02T06:20:58.497Z,22.80
2023-03-02T06:21:58.480Z,20.60
2023-03-02T06:22:58.439Z,20.80
2023-03-02T06:23:58.507Z,21.40
2023-03-02T06:24:58.418Z,20.90
2023-03-02T06:25:58.435Z,28.70
2023-03-02T06:26:58.392Z,29.10
2023-03-02T06:27:58.443Z,24.90
2023-03-02T06:28:58.863Z,22.90
2023-03-02T06:29:58.385Z,21.80
2023-03-02T06:30:58.370Z,24.30
2023-03-02T06:31:58.515Z,23.60
2023-03-02T06:32:58.373Z,26.70
2023-03-02T06:33:58.316Z,21.50
2023-03-02T06:34:58.440Z,22.10
2023-03-02T06:35:58.436Z,22.80
2023-03-02T06:36:58.351Z,22.00
2023-03-02T06:37:58.304Z,22.00
2023-03-02T06:38:58.259Z,22.40
2023-03-02T06:39:58.280Z,24.00
2023-03-02T06:40:58.241Z,22.20
2023-03-02T06:41:58.230Z,21.90
2023-03-02T06:42:58.254Z,20.00
2023-03-02T06:43:58.218Z,20.70
2023-03-02T06:44:58.190Z,20.30
2023-03-02T06:45:58.257Z,20.60
2023-03-02T06:46:58.427Z,20.70
2023-03-02T06:47:58.174Z,20.00
2023-03-02T06:48:58.183Z,18.90
2023-03-02T06:49:58.176Z,19.30
2023-03-02T06:50:58.123Z,19.20
2023-03-02T06:51:58.115Z,19.90
2023-03-02T06:52:58.121Z,20.00
2023-03-02T06:53:58.108Z,18.70
2023-03-02T06:54:58.110Z,20.20
2023-03-02T06:55:58.126Z,20.80
2023-03-02T06:56:58.063Z,20.20
2023-03-02T06:57:58.327Z,21.40
2023-03-02T06:58:58.040Z,19.60
2023-03-02T06:59:58.062Z,20.10
2023-03-02T07:00:58.096Z,20.10
2023-03-02T07:01:58.004Z,21.80
2023-03-02T07:02:58.040Z,19.60
2023-03-02T07:03:58.447Z,19.90
2023-03-02T07:04:57.981Z,20.50
2023-03-02T07:05:58.010Z,20.40
2023-03-02T07:06:57.984Z,21.60
2023-03-02T07:07:57.954Z,20.70
2023-03-02T07:08:57.920Z,19.70
2023-03-02T07:09:57.929Z,20.10
2023-03-02T07:10:57.928Z,19.90
2023-03-02T07:11:57.935Z,20.10
2023-03-02T07:12:57.914Z,21.10
2023-03-02T07:13:57.871Z,19.10
2023-03-02T07:14:57.866Z,20.60
2023-03-02T07:15:57.864Z,21.10
2023-03-02T07:16:57.914Z,19.70
2023-03-02T07:17:57.890Z,21.40
2023-03-02T07:18:57.825Z,19.90
2023-03-02T07:19:57.796Z,19.40
2023-03-02T07:20:57.792Z,18.40
2023-03-02T07:21:57.808Z,17.70
2023-03-02T07:22:57.770Z,17.90
2023-03-02T07:23:57.834Z,19.10
2023-03-02T07:24:57.741Z,17.30
2023-03-02T07:25:57.730Z,19.50
2023-03-02T07:26:57.745Z,18.90
2023-03-02T07:27:57.748Z,20.70
2023-03-02T07:28:57.718Z,19.20
2023-03-02T07:29:57.694Z,19.20
2023-03-02T07:30:57.703Z,18.00
2023-03-02T07:31:57.797Z,18.50
2023-03-02T07:32:57.711Z,19.60
2023-03-02T07:33:57.694Z,19.10
2023-03-02T07:34:57.674Z,18.40
2023-03-02T07:35:57.697Z,20.50
2023-03-02T07:36:57.612Z,18.20
2023-03-02T07:37:57.603Z,18.10
2023-03-02T07:38:57.619Z,18.70
2023-03-02T07:39:59.684Z,18.30
2023-03-02T07:40:57.560Z,19.00
2023-03-02T07:41:57.592Z,17.80
2023-03-02T07:42:57.571Z,21.00
2023-03-02T07:43:57.564Z,16.70
2023-03-02T07:44:57.550Z,19.60
2023-03-02T07:45:59.501Z,19.10
2023-03-02T07:46:57.589Z,19.80
2023-03-02T07:47:57.552Z,16.90
2023-03-02T07:48:57.480Z,17.30
2023-03-02T07:49:57.486Z,16.90
2023-03-02T07:50:57.477Z,19.10
2023-03-02T07:51:57.491Z,18.40
2023-03-02T07:52:59.678Z,16.60
2023-03-02T07:53:57.438Z,18.20
2023-03-02T07:54:58.364Z,16.90
2023-03-02T07:55:57.399Z,16.60
2023-03-02T07:56:57.406Z,18.90
2023-03-02T07:57:57.403Z,16.60
2023-03-02T07:58:57.446Z,16.00
2023-03-02T07:59:57.351Z,16.50
2023-03-02T08:00:57.352Z,17.40
2023-03-02T08:01:57.464Z,19.00
2023-03-02T08:02:57.428Z,17.50
2023-03-02T08:03:57.348Z,18.00
2023-03-02T08:04:57.347Z,17.90
2023-03-02T08:05:57.355Z,17.80
2023-03-02T08:06:57.483Z,19.60
2023-03-02T08:07:57.369Z,17.30
2023-03-02T08:08:57.331Z,18.90
2023-03-02T08:09:57.240Z,17.90
2023-03-02T08:10:57.228Z,17.10
2023-03-02T08:11:57.229Z,18.00
2023-03-02T08:12:57.208Z,17.40
2023-03-02T08:13:57.262Z,17.70
2023-03-02T08:14:57.201Z,16.20
2023-03-02T08:15:57.207Z,17.30
2023-03-02T08:16:57.220Z,18.30
2023-03-02T08:17:57.178Z,18.70
2023-03-02T08:18:59.619Z,19.60
2023-03-02T08:19:57.180Z,18.90
2023-03-02T08:20:57.158Z,17.50
2023-03-02T08:21:57.159Z,18.00
2023-03-02T08:22:57.119Z,18.10
2023-03-02T08:23:57.159Z,18.70
2023-03-02T08:24:57.086Z,26.10
2023-03-02T08:25:57.105Z,19.60
2023-03-02T08:26:57.098Z,19.50
2023-03-02T08:27:57.124Z,19.20
2023-03-02T08:28:57.071Z,16.30
2023-03-02T08:29:57.047Z,18.30
2023-03-02T08:30:57.045Z,17.50
2023-03-02T08:31:57.089Z,17.30
2023-03-02T08:32:56.990Z,16.80
2023-03-02T08:33:57.004Z,16.80
2023-03-02T08:34:57.040Z,15.90
2023-03-02T08:35:57.037Z,15.80
2023-03-02T08:36:56.947Z,15.40
2023-03-02T08:37:57.031Z,16.80
2023-03-02T08:38:56.982Z,16.10
2023-03-02T08:39:58.645Z,16.90
2023-03-02T08:40:56.916Z,16.90
2023-03-02T08:41:56.905Z,17.00
2023-03-02T08:42:56.890Z,16.10
2023-03-02T08:43:56.933Z,15.60
2023-03-02T08:44:56.874Z,17.50
2023-03-02T08:45:56.885Z,17.90
2023-03-02T08:46:56.859Z,16.40
2023-03-02T08:47:56.840Z,17.40
2023-03-02T08:48:56.833Z,16.90
2023-03-02T08:49:56.870Z,16.50
2023-03-02T08:50:56.785Z,16.10
2023-03-02T08:51:57.426Z,15.30
2023-03-02T08:52:56.799Z,16.60
2023-03-02T08:53:56.765Z,15.30
2023-03-02T08:54:56.792Z,15.90
2023-03-02T08:55:56.745Z,14.50
2023-03-02T08:56:56.716Z,14.00
2023-03-02T08:57:56.735Z,15.10
2023-03-02T08:58:56.734Z,16.90
2023-03-02T08:59:56.692Z,14.40
2023-03-02T09:00:56.729Z,15.80
2023-03-02T09:01:56.665Z,13.80
2023-03-02T09:02:56.731Z,16.50
2023-03-02T09:03:56.735Z,15.40
2023-03-02T09:04:56.969Z,15.90
2023-03-02T09:05:56.766Z,17.90
2023-03-02T09:06:56.680Z,15.10
2023-03-02T09:07:56.899Z,16.30
2023-03-02T09:08:56.672Z,17.20
2023-03-02T09:09:56.572Z,17.50
2023-03-02T09:10:56.777Z,14.00
2023-03-02T09:11:56.541Z,16.10
2023-03-02T09:12:56.609Z,15.10
2023-03-02T09:13:56.528Z,14.30
2023-03-02T09:14:56.531Z,15.70
2023-03-02T09:15:56.505Z,16.40
2023-03-02T09:16:56.581Z,16.60
2023-03-02T09:17:56.474Z,15.90
2023-03-02T09:18:56.466Z,16.80
2023-03-02T09:19:56.464Z,17.40
2023-03-02T09:20:56.445Z,14.60
2023-03-02T09:21:56.472Z,14.80
2023-03-02T09:22:56.452Z,16.60
2023-03-02T09:23:56.416Z,16.00
2023-03-02T09:24:56.402Z,14.60
2023-03-02T09:25:56.438Z,18.10
2023-03-02T09:26:56.428Z,15.50
2023-03-02T09:27:56.425Z,15.10
2023-03-02T09:28:56.388Z,15.20
2023-03-02T09:29:56.385Z,16.60
2023-03-02T09:30:56.356Z,15.70
2023-03-02T09:31:56.516Z,15.20
2023-03-02T09:32:56.496Z,15.00
2023-03-02T09:33:56.314Z,14.20
2023-03-02T09:34:56.286Z,17.00
2023-03-02T09:35:56.303Z,16.30
2023-03-02T09:36:56.290Z,15.60
2023-03-02T09:37:56.278Z,15.60
2023-03-02T09:38:56.255Z,17.10
2023-03-02T09:39:56.289Z,15.80
2023-03-02T09:40:56.227Z,15.30
2023-03-02T09:41:56.238Z,15.80
2023-03-02T09:42:56.292Z,17.70
2023-03-02T09:43:56.208Z,17.40
2023-03-02T09:44:56.222Z,16.60
2023-03-02T09:45:56.236Z,16.20
2023-03-02T09:46:56.370Z,14.40
2023-03-02T09:47:56.146Z,15.80
2023-03-02T09:48:56.158Z,15.80
2023-03-02T09:49:56.179Z,17.60
2023-03-02T09:50:56.147Z,13.80
2023-03-02T09:51:56.142Z,16.30
2023-03-02T09:52:56.100Z,15.80
2023-03-02T09:53:56.148Z,15.30
2023-03-02T09:54:56.072Z,16.30
2023-03-02T09:55:56.080Z,17.90
2023-03-02T09:56:56.082Z,20.20
2023-03-02T09:57:56.076Z,18.50
2023-03-02T09:58:56.037Z,16.20
2023-03-02T09:59:57.304Z,16.00
2023-03-02T10:00:56.040Z,16.70
2023-03-02T10:01:55.995Z,17.00
2023-03-02T10:02:58.736Z,18.40
2023-03-02T10:03:57.159Z,16.60
2023-03-02T10:04:56.075Z,16.20
2023-03-02T10:05:55.965Z,16.00
2023-03-02T10:06:55.972Z,16.80
2023-03-02T10:07:57.852Z,17.40
2023-03-02T10:08:56.003Z,16.70
2023-03-02T10:09:56.001Z,15.70
2023-03-02T10:10:55.989Z,17.20
2023-03-02T10:11:55.876Z,17.40
2023-03-02T10:12:55.908Z,20.30
2023-03-02T10:13:55.869Z,20.10
2023-03-02T10:14:55.867Z,15.80
2023-03-02T10:15:55.928Z,19.20
2023-03-02T10:16:55.834Z,18.70
2023-03-02T10:17:55.815Z,19.20
2023-03-02T10:18:55.900Z,18.70
2023-03-02T10:19:55.815Z,16.40
2023-03-02T10:20:55.813Z,17.90
2023-03-02T10:21:55.818Z,18.20
2023-03-02T10:22:55.771Z,19.40
2023-03-02T10:23:55.766Z,19.00
2023-03-02T10:24:55.752Z,15.70
2023-03-02T10:25:55.756Z,18.50
2023-03-02T10:26:55.719Z,15.90
2023-03-02T10:27:55.967Z,17.30
2023-03-02T10:28:55.695Z,15.30
2023-03-02T10:29:55.684Z,16.20
2023-03-02T10:30:55.827Z,15.40
2023-03-02T10:31:55.770Z,16.70
2023-03-02T10:32:55.638Z,16.70
2023-03-02T10:33:55.647Z,16.70
2023-03-02T10:34:55.640Z,16.80
2023-03-02T10:35:55.785Z,15.40
2023-03-02T10:36:55.624Z,17.10
2023-03-02T10:37:55.633Z,19.60
2023-03-02T10:38:55.644Z,15.90
2023-03-02T10:39:55.581Z,17.30
2023-03-02T10:40:55.594Z,17.70
2023-03-02T10:41:55.578Z,16.90
2023-03-02T10:42:55.535Z,19.00
2023-03-02T10:43:55.530Z,21.60
2023-03-02T10:44:55.506Z,17.30
2023-03-02T10:45:55.553Z,17.90
2023-03-02T10:46:55.516Z,15.80
2023-03-02T10:47:55.489Z,15.90
2023-03-02T10:48:55.468Z,15.70
2023-03-02T10:49:55.536Z,15.70
2023-03-02T10:50:55.455Z,16.00
2023-03-02T10:51:55.460Z,14.40
2023-03-02T10:52:59.957Z,14.50
2023-03-02T10:53:56.401Z,16.20
2023-03-02T10:54:55.402Z,17.70
2023-03-02T10:55:55.440Z,15.90
2023-03-02T10:56:55.399Z,14.80
2023-03-02T10:57:55.408Z,15.70
2023-03-02T10:58:56.483Z,14.70
2023-03-02T10:59:55.331Z,17.20
2023-03-02T11:00:55.334Z,14.80
2023-03-02T11:01:55.395Z,15.50
2023-03-02T11:02:55.413Z,13.60
2023-03-02T11:03:55.323Z,14.60
2023-03-02T11:04:57.425Z,15.90
2023-03-02T11:05:55.407Z,18.20
2023-03-02T11:06:55.321Z,15.30
2023-03-02T11:07:55.430Z,16.10
2023-03-02T11:08:55.237Z,15.90
2023-03-02T11:09:55.237Z,14.50
2023-03-02T11:10:57.071Z,17.40
2023-03-02T11:11:56.299Z,16.80
2023-03-02T11:12:55.284Z,16.40
2023-03-02T11:13:55.188Z,16.00
2023-03-02T11:14:55.176Z,16.30
2023-03-02T11:15:55.211Z,15.20
2023-03-02T11:16:55.241Z,14.00
2023-03-02T11:17:55.136Z,15.00
2023-03-02T11:18:55.153Z,15.50
2023-03-02T11:19:55.170Z,14.70
2023-03-02T11:20:55.144Z,14.60
2023-03-02T11:21:55.114Z,15.70
2023-03-02T11:22:55.079Z,15.80
2023-03-02T11:23:55.084Z,16.10
2023-03-02T11:24:55.126Z,16.00
2023-03-02T11:25:55.040Z,15.60
2023-03-02T11:26:55.053Z,16.40
2023-03-02T11:27:55.055Z,15.40
2023-03-02T11:28:55.013Z,16.20
2023-03-02T11:29:55.005Z,15.80
2023-03-02T11:30:55.476Z,14.10
2023-03-02T11:31:55.173Z,15.10
2023-03-02T11:32:55.011Z,13.40
2023-03-02T11:33:57.942Z,13.10
2023-03-02T11:34:55.007Z,13.00
2023-03-02T11:35:54.977Z,15.40
2023-03-02T11:36:55.082Z,14.80
2023-03-02T11:37:54.925Z,14.70
2023-03-02T11:38:54.917Z,13.80
2023-03-02T11:39:55.963Z,14.00
2023-03-02T11:40:54.878Z,13.60
2023-03-02T11:41:54.903Z,14.40
2023-03-02T11:42:54.969Z,14.00
2023-03-02T11:43:54.897Z,13.90
2023-03-02T11:44:54.857Z,13.70
2023-03-02T11:45:54.820Z,13.40
2023-03-02T11:46:55.012Z,13.30
2023-03-02T11:48:02.398Z,13.00
2023-03-02T11:48:55.822Z,13.30
2023-03-02T11:49:54.787Z,13.10
2023-03-02T11:50:54.824Z,14.90
2023-03-02T11:51:58.317Z,13.60
2023-03-02T11:52:54.756Z,12.00
2023-03-02T11:53:54.862Z,12.70
2023-03-02T11:54:54.763Z,11.60
2023-03-02T11:55:54.752Z,13.30
2023-03-02T11:56:54.697Z,12.50
2023-03-02T11:57:54.697Z,14.70
2023-03-02T11:58:54.713Z,16.30
2023-03-02T11:59:54.667Z,13.00
2023-03-02T12:00:54.721Z,12.80
2023-03-02T12:01:54.889Z,13.70
2023-03-02T12:02:54.685Z,12.90
2023-03-02T12:03:54.679Z,14.50
2023-03-02T12:04:54.620Z,11.10
2023-03-02T12:05:54.623Z,12.20
2023-03-02T12:06:54.622Z,11.80
2023-03-02T12:07:54.577Z,13.90
2023-03-02T12:08:54.684Z,11.20
2023-03-02T12:09:54.568Z,10.80
2023-03-02T12:10:54.558Z,9.90
2023-03-02T12:11:54.583Z,10.80
2023-03-02T12:12:54.548Z,10.70
2023-03-02T12:13:54.511Z,11.70
2023-03-02T12:14:54.510Z,9.90
2023-03-02T12:15:54.524Z,10.10
2023-03-02T12:16:54.710Z,10.80
2023-03-02T12:17:54.581Z,11.80
2023-03-02T12:18:54.454Z,10.60
2023-03-02T12:19:54.458Z,11.90
2023-03-02T12:20:54.455Z,12.00
2023-03-02T12:21:54.445Z,11.20
2023-03-02T12:22:54.440Z,11.70
2023-03-02T12:23:54.562Z,11.10
2023-03-02T12:25:02.369Z,12.00
2023-03-02T12:25:54.394Z,11.80
2023-03-02T12:26:54.381Z,10.00
2023-03-02T12:27:54.356Z,9.20
2023-03-02T12:28:54.365Z,11.30
2023-03-02T12:29:54.340Z,10.10
2023-03-02T12:30:54.323Z,11.10
2023-03-02T12:31:54.466Z,9.60
2023-03-02T12:32:54.343Z,9.50
2023-03-02T12:33:54.290Z,10.70
2023-03-02T12:34:54.346Z,11.80
2023-03-02T12:35:54.269Z,10.50
2023-03-02T12:36:54.379Z,10.00
2023-03-02T12:37:54.500Z,11.90
2023-03-02T12:38:54.249Z,10.70
2023-03-02T12:39:54.246Z,8.20
2023-03-02T12:40:54.220Z,9.40
2023-03-02T12:41:54.241Z,9.70
2023-03-02T12:42:54.252Z,8.10
2023-03-02T12:43:54.217Z,8.20
2023-03-02T12:44:54.224Z,8.00
2023-03-02T12:45:54.286Z,8.30
2023-03-02T12:46:54.145Z,8.80
2023-03-02T12:47:54.268Z,9.90
2023-03-02T12:48:54.366Z,8.60
2023-03-02T12:49:54.144Z,8.30
2023-03-02T12:50:54.095Z,10.40
2023-03-02T12:51:54.284Z,8.90
2023-03-02T12:52:54.072Z,8.60